createdAt,value
2019-05-02T00:00:05.766Z,5.00
2019-05-02T00:02:46.067Z,4.63
2019-05-02T00:05:27.336Z,4.53
2019-05-02T00:08:08.365Z,4.57
2019-05-02T00:10:48.526Z,5.23
2019-05-02T00:13:28.595Z,4.30
2019-05-02T00:16:13.573Z,4.97
2019-05-02T00:18:51.234Z,4.43
2019-05-02T00:21:32.998Z,4.43
2019-05-02T00:24:03.070Z,4.20
2019-05-02T00:26:30.439Z,4.23
2019-05-02T00:29:18.998Z,4.70
2019-05-02T00:31:59.123Z,4.90
2019-05-02T00:34:38.849Z,4.83
2019-05-02T00:40:01.117Z,5.23
2019-05-02T00:42:41.279Z,4.83
2019-05-02T00:45:23.998Z,4.57
2019-05-02T00:48:09.079Z,4.43
2019-05-02T00:53:32.458Z,4.13
2019-05-02T00:56:19.605Z,4.20
2019-05-02T00:59:02.165Z,4.47
2019-05-02T01:04:45.829Z,4.30
2019-05-02T01:07:26.881Z,4.87
2019-05-02T01:10:06.701Z,4.40
2019-05-02T01:12:47.235Z,4.87
2019-05-02T01:15:27.125Z,4.57
2019-05-02T01:18:07.986Z,4.50
2019-05-02T01:20:48.931Z,4.30
2019-05-02T01:23:29.957Z,4.97
2019-05-02T01:26:10.809Z,4.50
2019-05-02T01:28:56.419Z,4.27
2019-05-02T01:31:59.304Z,4.90
2019-05-02T01:34:58.619Z,4.27
2019-05-02T01:37:57.933Z,5.37
2019-05-02T01:40:38.814Z,4.27
2019-05-02T01:43:19.813Z,4.70
2019-05-02T01:46:00.602Z,4.63
2019-05-02T01:48:45.890Z,4.47
2019-05-02T01:51:22.778Z,5.17
2019-05-02T01:54:04.927Z,4.40
2019-05-02T01:56:33.038Z,4.80
2019-05-02T01:59:01.821Z,4.87
2019-05-02T02:01:53.158Z,4.40
2019-05-02T02:04:30.959Z,5.20
2019-05-02T02:07:15.027Z,4.70
2019-05-02T02:09:53.142Z,4.43
2019-05-02T02:12:33.255Z,4.90
2019-05-02T02:15:13.341Z,4.43
2019-05-02T02:17:53.396Z,4.80
2019-05-02T02:26:43.687Z,4.40
2019-05-02T02:29:24.441Z,4.70
2019-05-02T02:32:04.458Z,4.70
2019-05-02T02:34:45.283Z,4.50
2019-05-02T02:37:15.219Z,4.67
2019-05-02T02:40:03.587Z,4.23
2019-05-02T02:42:44.088Z,4.27
2019-05-02T02:45:25.934Z,5.13
2019-05-02T02:48:06.347Z,4.00
2019-05-02T02:50:46.586Z,4.30
2019-05-02T02:53:29.666Z,4.57
2019-05-02T02:56:12.367Z,4.83
2019-05-02T02:58:57.238Z,4.70
2019-05-02T03:01:37.154Z,4.67
2019-05-02T03:04:17.586Z,5.33
2019-05-02T03:06:57.198Z,4.83
2019-05-02T03:09:37.859Z,4.57
2019-05-02T03:12:41.628Z,4.63
2019-05-02T03:15:21.146Z,4.50
2019-05-02T03:18:02.121Z,4.63
2019-05-02T03:20:42.847Z,4.43
2019-05-02T03:23:24.133Z,4.60
2019-05-02T03:26:08.064Z,5.00
2019-05-02T03:28:57.286Z,4.60
2019-05-02T03:31:30.869Z,5.07
2019-05-02T03:37:22.082Z,4.80
2019-05-02T03:40:02.140Z,4.90
2019-05-02T03:42:44.565Z,4.60
2019-05-02T03:48:36.526Z,4.67
2019-05-02T03:51:24.352Z,5.13
2019-05-02T03:54:07.576Z,5.20
2019-05-02T03:56:28.062Z,5.03
2019-05-02T03:59:15.214Z,4.30
2019-05-02T04:02:02.303Z,4.60
2019-05-02T04:04:42.035Z,4.70
2019-05-02T04:07:22.074Z,4.80
2019-05-02T04:10:02.515Z,4.57
2019-05-02T04:12:42.422Z,4.43
2019-05-02T04:15:22.449Z,4.57
2019-05-02T04:18:08.356Z,4.50
2019-05-02T04:20:49.536Z,4.30
2019-05-02T04:23:27.903Z,4.20
2019-05-02T04:29:07.239Z,4.20
2019-05-02T04:31:47.203Z,4.27
2019-05-02T04:34:27.118Z,4.90
2019-05-02T04:37:01.146Z,4.23
2019-05-02T04:39:43.598Z,4.40
2019-05-02T04:45:24.139Z,4.37
2019-05-02T04:48:01.020Z,4.47
2019-05-02T04:50:38.341Z,4.30
2019-05-02T04:53:18.952Z,4.40
2019-05-02T04:56:04.340Z,4.17
2019-05-02T04:58:41.506Z,4.43
2019-05-02T05:01:21.687Z,4.57
2019-05-02T05:04:03.097Z,4.23
2019-05-02T05:06:52.501Z,4.80
2019-05-02T05:09:14.814Z,4.17
2019-05-02T05:12:02.742Z,3.80
2019-05-02T05:14:43.563Z,4.00
2019-05-02T05:17:25.009Z,4.20
2019-05-02T05:20:13.743Z,4.23
2019-05-02T05:22:36.577Z,4.00
2019-05-02T05:28:19.804Z,4.00
2019-05-02T05:30:59.725Z,4.60
2019-05-02T05:33:39.773Z,3.80
2019-05-02T05:36:24.768Z,4.17
2019-05-02T05:39:03.043Z,4.00
2019-05-02T05:41:31.741Z,4.17
2019-05-02T05:44:23.298Z,3.97
2019-05-02T05:47:00.656Z,4.03
2019-05-02T05:49:40.681Z,3.70
2019-05-02T05:52:20.768Z,3.90
2019-05-02T05:55:01.101Z,4.40
2019-05-02T05:57:41.334Z,4.00
2019-05-02T06:00:15.983Z,4.03
2019-05-02T06:03:10.186Z,4.20
2019-05-02T06:05:47.726Z,3.83
2019-05-02T06:08:28.798Z,4.53
2019-05-02T06:11:14.815Z,4.33
2019-05-02T06:13:53.112Z,3.83
2019-05-02T06:16:35.218Z,4.10
2019-05-02T06:19:03.353Z,3.90
2019-05-02T06:21:50.353Z,4.00
2019-05-02T06:24:33.545Z,4.30
2019-05-02T06:27:12.477Z,4.40
2019-05-02T06:29:56.093Z,3.90
2019-05-02T06:32:34.822Z,4.10
2019-05-02T06:35:02.582Z,3.70
2019-05-02T06:37:50.250Z,3.70
2019-05-02T06:40:39.445Z,4.30
2019-05-02T06:43:20.321Z,4.23
2019-05-02T06:46:00.975Z,3.80
2019-05-02T06:48:43.126Z,3.23
2019-05-02T06:51:22.856Z,3.60
2019-05-02T06:54:03.189Z,3.37
2019-05-02T06:56:47.789Z,3.83
2019-05-02T06:59:25.476Z,4.07
2019-05-02T07:02:05.546Z,3.03
2019-05-02T07:04:45.549Z,3.67
2019-05-02T07:07:31.409Z,3.70
2019-05-02T07:10:07.680Z,3.57
2019-05-02T07:12:51.295Z,3.40
2019-05-02T07:18:47.526Z,3.50
2019-05-02T07:21:28.486Z,3.93
2019-05-02T07:24:08.749Z,3.57
2019-05-02T07:29:10.232Z,3.50
2019-05-02T07:31:57.234Z,3.57
2019-05-02T07:34:36.975Z,3.70
2019-05-02T07:37:08.525Z,3.70
2019-05-02T07:39:55.681Z,3.70
2019-05-02T07:42:43.223Z,3.67
2019-05-02T07:45:23.609Z,3.80
2019-05-02T07:48:03.687Z,3.63
2019-05-02T07:50:46.598Z,3.70
2019-05-02T07:53:25.727Z,4.10
2019-05-02T07:56:05.723Z,4.00
2019-05-02T07:58:33.397Z,4.17
2019-05-02T08:01:20.451Z,4.00
2019-05-02T08:04:11.082Z,4.70
2019-05-02T08:06:50.075Z,5.57
2019-05-02T08:09:29.997Z,6.47
2019-05-02T08:12:10.565Z,6.40
2019-05-02T08:14:50.689Z,6.47
2019-05-02T08:17:30.850Z,6.73
2019-05-02T08:20:13.592Z,5.70
2019-05-02T08:22:53.187Z,4.77
2019-05-02T08:25:33.374Z,6.10
2019-05-02T08:31:13.663Z,4.15
2019-05-02T08:33:53.338Z,3.92
2019-05-02T08:36:33.405Z,4.08
2019-05-02T08:39:14.530Z,5.37
2019-05-02T08:41:56.335Z,6.12
2019-05-02T08:44:49.615Z,4.40
2019-05-02T08:47:19.597Z,4.90
2019-05-02T08:49:49.399Z,4.17
2019-05-02T08:52:42.220Z,4.97
2019-05-02T08:55:19.603Z,5.35
2019-05-02T08:57:59.773Z,6.10
2019-05-02T09:00:39.842Z,7.97
2019-05-02T09:03:19.613Z,7.62
2019-05-02T09:06:06.067Z,7.53
2019-05-02T09:08:46.127Z,7.30
2019-05-02T09:11:24.066Z,7.83
2019-05-02T09:14:04.267Z,7.92
2019-05-02T09:16:44.186Z,6.70
2019-05-02T09:19:26.373Z,6.58
2019-05-02T09:22:07.557Z,6.75
2019-05-02T09:24:35.637Z,7.22
2019-05-02T09:27:22.650Z,7.42
2019-05-02T09:30:02.872Z,6.70
2019-05-02T09:32:42.549Z,6.58
2019-05-02T09:35:23.109Z,7.08
2019-05-02T09:38:02.977Z,6.65
2019-05-02T09:40:47.185Z,6.58
2019-05-02T09:43:24.367Z,6.75
2019-05-02T09:46:07.334Z,6.35
2019-05-02T09:48:46.797Z,6.00
2019-05-02T09:51:26.880Z,6.60
2019-05-02T09:54:06.957Z,6.20
2019-05-02T09:56:34.719Z,6.28
2019-05-02T10:02:32.519Z,6.40
2019-05-02T10:05:13.687Z,6.72
2019-05-02T10:07:57.555Z,6.25
2019-05-02T10:10:37.230Z,7.42
2019-05-02T10:13:15.722Z,6.92
2019-05-02T10:16:02.787Z,7.15
2019-05-02T10:18:43.122Z,6.47
2019-05-02T10:21:23.621Z,7.25
2019-05-02T10:24:04.000Z,7.00
2019-05-02T10:26:43.958Z,6.60
2019-05-02T10:29:28.228Z,7.72
2019-05-02T10:32:07.487Z,7.75
2019-05-02T10:38:00.183Z,8.08
2019-05-02T10:40:42.352Z,7.67
2019-05-02T10:43:22.386Z,8.60
2019-05-02T10:52:12.213Z,9.28
2019-05-02T10:54:52.955Z,9.03
2019-05-02T10:57:33.034Z,9.40
2019-05-02T11:00:13.159Z,8.95
2019-05-02T11:03:15.754Z,8.43
2019-05-02T11:06:03.006Z,9.50
2019-05-02T11:08:42.122Z,9.73
2019-05-02T11:11:22.130Z,9.55
2019-05-02T11:14:22.546Z,9.60
2019-05-02T11:20:14.390Z,10.18
2019-05-02T11:22:55.253Z,9.95
2019-05-02T11:25:34.925Z,10.03
2019-05-02T11:28:14.946Z,10.43
2019-05-02T11:30:57.054Z,9.45
2019-05-02T11:33:37.210Z,10.15
2019-05-02T11:36:17.238Z,9.70
2019-05-02T11:39:09.487Z,9.23
2019-05-02T11:41:39.415Z,9.45
2019-05-02T11:44:07.159Z,9.63
2019-05-02T11:46:54.165Z,9.58
2019-05-02T11:49:34.811Z,8.98
2019-05-02T11:52:15.030Z,8.93
2019-05-02T11:54:55.484Z,10.40
2019-05-02T11:57:35.679Z,9.25
2019-05-02T12:00:15.730Z,8.75
2019-05-02T12:03:15.274Z,9.28
2019-05-02T12:05:55.437Z,8.65
2019-05-02T12:08:24.255Z,9.05
2019-05-02T12:11:16.483Z,8.55
2019-05-02T12:14:01.961Z,8.63
2019-05-02T12:16:52.724Z,8.28
2019-05-02T12:19:33.153Z,9.08
2019-05-02T12:22:16.970Z,8.13
2019-05-02T12:24:56.564Z,7.65
2019-05-02T12:27:38.890Z,7.97
2019-05-02T12:33:03.268Z,7.40
2019-05-02T12:35:44.527Z,7.12
2019-05-02T12:38:12.934Z,7.28
2019-05-02T12:44:19.513Z,7.00
2019-05-02T12:46:47.989Z,7.30
2019-05-02T12:49:35.778Z,7.95
2019-05-02T12:52:23.237Z,6.62
2019-05-02T12:54:53.194Z,7.80
2019-05-02T12:57:42.699Z,7.47
2019-05-02T13:00:49.056Z,7.10
2019-05-02T13:04:02.785Z,6.90
2019-05-02T13:06:32.744Z,7.47
2019-05-02T13:09:13.407Z,7.78
2019-05-02T13:14:42.244Z,8.50
2019-05-02T13:17:22.657Z,6.97
2019-05-02T13:19:57.115Z,7.40
2019-05-02T13:22:41.945Z,8.10
2019-05-02T13:25:35.261Z,7.70
2019-05-02T13:28:12.271Z,7.78
2019-05-02T13:31:02.364Z,7.62
2019-05-02T13:34:14.707Z,7.67
2019-05-02T13:36:53.461Z,7.10
2019-05-02T13:39:49.074Z,7.05
2019-05-02T13:42:22.007Z,6.15
2019-05-02T13:45:09.342Z,7.03
2019-05-02T13:47:37.384Z,6.78
2019-05-02T13:50:08.031Z,6.95
2019-05-02T13:52:58.012Z,6.72
2019-05-02T13:55:31.800Z,6.83
2019-05-02T13:58:21.616Z,5.70
2019-05-02T14:01:08.034Z,6.00
2019-05-02T14:03:48.127Z,5.95
2019-05-02T14:06:30.292Z,5.80
2019-05-02T14:12:13.973Z,6.47
2019-05-02T14:14:53.612Z,6.20
2019-05-02T14:17:34.483Z,6.80
2019-05-02T14:20:27.038Z,6.93
2019-05-02T14:23:12.052Z,6.77
2019-05-02T14:25:52.188Z,6.63
2019-05-02T14:28:43.403Z,7.53
2019-05-02T14:31:11.881Z,7.23
2019-05-02T14:36:29.130Z,8.73
2019-05-02T14:39:11.818Z,8.43
2019-05-02T14:41:52.557Z,8.00
2019-05-02T14:45:00.304Z,8.23
2019-05-02T14:47:19.693Z,7.73
2019-05-02T14:50:20.841Z,7.80
2019-05-02T14:52:41.531Z,6.70
2019-05-02T14:55:29.145Z,7.67
2019-05-02T14:58:07.937Z,7.37
2019-05-02T15:00:50.030Z,8.37
2019-05-02T15:03:32.458Z,7.87
2019-05-02T15:06:12.438Z,7.87
2019-05-02T15:08:52.757Z,8.43
2019-05-02T15:11:34.966Z,7.83
2019-05-02T15:14:19.726Z,8.20
2019-05-02T15:16:58.457Z,8.47
2019-05-02T15:19:38.637Z,8.80
2019-05-02T15:22:18.601Z,8.53
2019-05-02T15:24:58.773Z,8.07
2019-05-02T15:27:42.386Z,9.07
2019-05-02T15:30:21.114Z,8.97
2019-05-02T15:33:06.938Z,8.80
2019-05-02T15:36:03.059Z,8.87
2019-05-02T15:38:42.855Z,9.07
2019-05-02T15:41:22.794Z,8.63
2019-05-02T15:44:03.030Z,9.83
2019-05-02T15:46:43.070Z,10.17
2019-05-02T15:49:23.158Z,10.87
2019-05-02T15:52:03.265Z,9.27
2019-05-02T15:54:43.050Z,10.07
2019-05-02T15:57:24.910Z,9.63
2019-05-02T16:00:06.171Z,10.50
2019-05-02T16:02:47.045Z,10.00
2019-05-02T16:05:27.338Z,10.23
2019-05-02T16:08:08.794Z,10.60
2019-05-02T16:10:48.686Z,10.33
2019-05-02T16:13:28.621Z,10.80
2019-05-02T16:16:09.169Z,10.33
2019-05-02T16:18:49.154Z,10.43
2019-05-02T16:21:35.437Z,11.00
2019-05-02T16:24:18.370Z,10.60
2019-05-02T16:26:58.749Z,10.20
2019-05-02T16:29:38.889Z,11.27
2019-05-02T16:32:30.957Z,9.77
2019-05-02T16:35:15.368Z,10.67
2019-05-02T16:37:55.858Z,10.73
2019-05-02T16:40:34.945Z,10.60
2019-05-02T16:43:15.061Z,11.23
2019-05-02T16:45:55.343Z,10.50
2019-05-02T16:48:37.554Z,14.43
2019-05-02T16:51:29.980Z,12.53
2019-05-02T16:54:01.579Z,12.63
2019-05-02T16:56:45.830Z,13.00
2019-05-02T16:59:24.301Z,12.40
2019-05-02T17:02:07.959Z,13.10
2019-05-02T17:04:46.422Z,13.33
2019-05-02T17:07:46.069Z,14.43
2019-05-02T17:10:32.176Z,14.90
2019-05-02T17:13:13.699Z,13.43
2019-05-02T17:15:53.865Z,12.53
2019-05-02T17:18:33.778Z,12.93
2019-05-02T17:21:13.899Z,13.63
2019-05-02T17:23:54.036Z,15.70
2019-05-02T17:26:34.214Z,17.37
2019-05-02T17:29:16.476Z,12.17
2019-05-02T17:31:59.282Z,13.07
2019-05-02T17:34:38.374Z,12.70
2019-05-02T17:37:18.145Z,13.97
2019-05-02T17:39:58.325Z,12.80
2019-05-02T17:42:38.526Z,14.00
2019-05-02T17:45:18.708Z,15.70
2019-05-02T17:47:58.726Z,15.47
2019-05-02T17:50:59.339Z,14.93
2019-05-02T17:53:42.505Z,13.73
2019-05-02T17:56:23.173Z,7.97
2019-05-02T17:59:03.246Z,5.50
2019-05-02T18:01:43.473Z,5.50
2019-05-02T18:04:23.321Z,8.47
2019-05-02T18:07:03.432Z,8.93
2019-05-02T18:09:43.504Z,9.63
2019-05-02T18:12:23.455Z,10.37
2019-05-02T18:15:03.631Z,12.10
2019-05-02T18:17:43.799Z,12.10
2019-05-02T18:20:25.391Z,9.77
2019-05-02T18:23:06.074Z,7.80
2019-05-02T18:25:45.879Z,7.00
2019-05-02T18:28:26.558Z,6.37
2019-05-02T18:31:07.252Z,4.40
2019-05-02T18:33:47.240Z,3.20
2019-05-02T18:36:27.735Z,3.10
2019-05-02T18:39:07.437Z,3.67
2019-05-02T18:41:47.354Z,3.60
2019-05-02T18:44:27.477Z,4.03
2019-05-02T18:47:12.518Z,3.20
2019-05-02T18:49:53.829Z,3.17
2019-05-02T18:52:38.093Z,3.90
2019-05-02T18:55:17.183Z,4.07
2019-05-02T18:57:57.121Z,3.27
2019-05-02T19:00:39.601Z,4.30
2019-05-02T19:03:19.438Z,3.70
2019-05-02T19:05:59.405Z,3.67
2019-05-02T19:08:46.554Z,3.80
2019-05-02T19:11:22.124Z,3.63
2019-05-02T19:14:02.767Z,4.27
2019-05-02T19:16:42.728Z,4.00
2019-05-02T19:19:27.446Z,3.70
2019-05-02T19:22:07.487Z,6.77
2019-05-02T19:24:46.962Z,5.13
2019-05-02T19:27:46.536Z,9.60
2019-05-02T19:30:28.120Z,20.30
2019-05-02T19:33:08.131Z,54.20
2019-05-02T19:35:50.094Z,27.07
2019-05-02T19:38:32.383Z,7.93
2019-05-02T19:41:13.283Z,5.03
2019-05-02T19:43:53.610Z,5.10
2019-05-02T19:46:26.056Z,3.70
2019-05-02T19:49:12.360Z,4.53
2019-05-02T19:51:56.374Z,5.10
2019-05-02T19:54:22.465Z,3.70
2019-05-02T19:56:52.167Z,2.00
2019-05-02T19:59:24.510Z,1.67
2019-05-02T20:01:49.259Z,1.90
2019-05-02T20:04:16.841Z,1.63
2019-05-02T20:06:44.757Z,1.90
2019-05-02T20:09:31.983Z,1.87
2019-05-02T20:12:15.419Z,2.20
2019-05-02T20:14:54.526Z,2.03
2019-05-02T20:17:34.852Z,1.60
2019-05-02T20:20:16.786Z,1.60
2019-05-02T20:22:44.656Z,1.73
2019-05-02T20:25:37.484Z,1.60
2019-05-02T20:28:13.971Z,1.60
2019-05-02T20:30:53.726Z,1.87
2019-05-02T20:33:33.906Z,1.90
2019-05-02T20:36:14.069Z,1.70
2019-05-02T20:38:54.111Z,1.80
2019-05-02T20:41:34.567Z,1.93
2019-05-02T20:44:15.346Z,2.23
2019-05-02T20:46:55.551Z,2.27
2019-05-02T20:49:35.918Z,5.80
2019-05-02T20:52:15.605Z,1.97
2019-05-02T20:54:56.173Z,2.37
2019-05-02T20:57:36.028Z,1.97
2019-05-02T21:00:16.112Z,1.97
2019-05-02T21:02:56.182Z,2.90
2019-05-02T21:05:43.242Z,3.40
2019-05-02T21:11:36.911Z,1.90
2019-05-02T21:14:17.543Z,1.93
2019-05-02T21:16:57.479Z,2.00
2019-05-02T21:19:37.728Z,1.93
2019-05-02T21:22:27.895Z,2.03
2019-05-02T21:25:08.125Z,2.07
2019-05-02T21:27:48.456Z,1.77
2019-05-02T21:30:28.135Z,1.70
2019-05-02T21:33:08.357Z,1.90
2019-05-02T21:35:48.602Z,1.80
2019-05-02T21:38:28.959Z,1.93
2019-05-02T21:41:09.299Z,2.27
2019-05-02T21:43:49.289Z,1.83
2019-05-02T21:46:29.404Z,2.03
2019-05-02T21:49:09.789Z,1.93
2019-05-02T21:58:06.432Z,2.20
2019-05-02T22:01:05.851Z,2.50
2019-05-02T22:03:46.394Z,2.80
2019-05-02T22:06:26.896Z,2.63
2019-05-02T22:09:07.177Z,2.80
2019-05-02T22:11:47.029Z,3.07
2019-05-02T22:14:27.486Z,3.70
2019-05-02T22:17:07.303Z,4.07
2019-05-02T22:19:47.426Z,3.10
2019-05-02T22:22:27.457Z,3.03
2019-05-02T22:25:07.583Z,3.00
2019-05-02T22:27:49.857Z,2.93
2019-05-02T22:30:29.898Z,2.93
2019-05-02T22:33:11.882Z,3.10
2019-05-02T22:35:52.457Z,2.80
2019-05-02T22:41:15.865Z,2.80
2019-05-02T22:43:55.902Z,2.80
2019-05-02T22:46:43.551Z,2.77
2019-05-02T22:49:24.970Z,2.87
2019-05-02T22:52:05.126Z,2.53
2019-05-02T22:54:45.311Z,2.80
2019-05-02T22:57:25.301Z,2.67
2019-05-02T23:00:05.510Z,2.70
2019-05-02T23:02:45.669Z,2.60
2019-05-02T23:05:25.682Z,2.60
2019-05-02T23:08:05.825Z,2.83
2019-05-02T23:10:45.897Z,2.57
2019-05-02T23:13:26.045Z,2.87
2019-05-02T23:16:06.002Z,2.50
2019-05-02T23:18:46.122Z,2.43
2019-05-02T23:21:26.121Z,2.07
2019-05-02T23:24:14.649Z,2.07
2019-05-02T23:27:19.377Z,2.00
2019-05-02T23:29:59.365Z,2.10
2019-05-02T23:32:39.382Z,2.23
2019-05-02T23:35:19.271Z,1.80
2019-05-02T23:37:59.278Z,1.87
2019-05-02T23:40:39.441Z,1.73
2019-05-02T23:43:19.498Z,1.80
2019-05-02T23:45:59.533Z,1.70
2019-05-02T23:48:41.877Z,2.30
2019-05-02T23:51:22.641Z,1.93
2019-05-02T23:54:02.469Z,2.30
2019-05-02T23:56:43.123Z,2.53
2019-05-02T23:59:23.714Z,2.47
